Time;durP1;ratioP1;P1;durP2;ratioP2;P2;SDS_P1;SDS_P2;PMS_P1;PMS_P2;Temp;Humidity;BMP_temperature;BMP_pressure;BME280_temperature;BME280_humidity;BME280_pressure;Samples;Min_cycle;Max_cycle;Signal;HPM_P1;HPM_P2
2022/06/11 00:01:54;;;;;;;5.53;4.60;;;17.80;99.90;;;;;;5059464;28;20577;-44
2022/06/11 00:04:24;;;;;;;5.23;4.73;;;17.70;99.90;;;;;;5046372;28;20203;-43
2022/06/11 00:06:56;;;;;;;5.03;4.53;;;17.70;99.90;;;;;;5059893;28;20273;-42
2022/06/11 00:09:25;;;;;;;4.30;4.10;;;17.80;99.90;;;;;;5057441;28;20210;-44
2022/06/11 00:11:51;;;;;;;5.20;4.60;;;17.80;99.90;;;;;;5041075;28;20215;-42
2022/06/11 00:14:20;;;;;;;6.47;4.90;;;17.80;99.90;;;;;;5041846;28;20610;-42
2022/06/11 00:16:49;;;;;;;5.37;4.87;;;17.80;99.90;;;;;;5050574;28;20810;-42
2022/06/11 00:19:19;;;;;;;7.13;5.30;;;17.80;99.90;;;;;;5051311;28;20683;-42
2022/06/11 00:21:47;;;;;;;6.93;4.73;;;17.80;99.90;;;;;;5062428;28;20345;-43
2022/06/11 00:24:14;;;;;;;5.77;5.17;;;17.80;99.90;;;;;;5059286;28;20199;-42
2022/06/11 00:26:44;;;;;;;5.67;5.27;;;17.80;99.90;;;;;;5044034;28;20606;-42
2022/06/11 00:29:13;;;;;;;5.37;4.97;;;17.90;99.90;;;;;;5058229;28;20213;-43
2022/06/11 00:31:41;;;;;;;5.20;4.70;;;17.90;99.90;;;;;;5041071;28;20228;-43
2022/06/11 00:34:09;;;;;;;5.30;4.90;;;17.90;99.90;;;;;;5056996;28;20191;-47
2022/06/11 00:36:36;;;;;;;4.70;4.40;;;17.80;99.90;;;;;;5051343;28;20240;-42
2022/06/11 00:39:05;;;;;;;5.47;4.97;;;17.80;99.90;;;;;;5057849;28;20202;-41
2022/06/11 00:41:33;;;;;;;7.40;5.27;;;17.80;99.90;;;;;;5054380;28;20957;-46
2022/06/11 00:44:00;;;;;;;6.60;5.60;;;17.80;99.90;;;;;;5053408;28;20196;-41
2022/06/11 00:46:54;;;;;;;5.10;4.80;;;17.80;99.90;;;;;;5040598;28;20210;-42
2022/06/11 00:49:30;;;;;;;6.70;5.80;;;17.80;99.90;;;;;;5047217;28;20222;-43
2022/06/11 00:52:06;;;;;;;5.63;5.13;;;17.80;99.90;;;;;;5045006;28;20221;-42
2022/06/11 00:54:35;;;;;;;6.17;5.57;;;17.80;99.90;;;;;;5040818;28;20203;-45
2022/06/11 00:57:04;;;;;;;6.00;5.57;;;17.80;99.90;;;;;;5053687;28;20668;-41
2022/06/11 00:59:38;;;;;;;6.20;5.53;;;17.80;99.90;;;;;;5050704;28;20227;-42
2022/06/11 01:02:06;;;;;;;5.80;5.30;;;17.80;99.90;;;;;;5041633;28;20198;-44
2022/06/11 01:04:39;;;;;;;5.37;4.93;;;17.80;99.90;;;;;;5045463;28;20203;-42
2022/06/11 01:07:19;;;;;;;5.43;4.93;;;17.80;99.90;;;;;;5045291;28;20217;-46
2022/06/11 01:09:56;;;;;;;5.77;5.27;;;17.80;99.90;;;;;;5046900;28;20218;-42
2022/06/11 01:12:31;;;;;;;6.07;5.43;;;17.80;99.90;;;;;;5042261;28;20203;-43
2022/06/11 01:15:07;;;;;;;5.67;5.17;;;17.80;99.90;;;;;;5042226;28;20205;-46
2022/06/11 01:17:41;;;;;;;6.03;4.70;;;17.80;99.90;;;;;;5038400;28;20206;-44
2022/06/11 01:20:23;;;;;;;5.43;4.93;;;17.80;99.90;;;;;;5049753;28;20246;-44
2022/06/11 01:23:06;;;;;;;5.77;5.00;;;17.80;99.90;;;;;;5054740;28;20852;-44
2022/06/11 01:25:37;;;;;;;6.73;6.10;;;17.80;99.90;;;;;;5039554;28;20203;-43
2022/06/11 01:28:27;;;;;;;6.10;5.60;;;17.80;99.90;;;;;;5057196;28;20194;-47
2022/06/11 01:31:02;;;;;;;9.30;6.17;;;17.80;99.90;;;;;;5038254;28;20222;-43
2022/06/11 01:33:38;;;;;;;6.93;5.90;;;17.70;99.90;;;;;;5043429;28;20215;-42
2022/06/11 01:36:10;;;;;;;7.33;6.83;;;17.80;99.90;;;;;;5046344;28;20194;-41
2022/06/11 01:38:41;;;;;;;7.40;6.80;;;17.70;99.90;;;;;;5052719;28;20203;-42
2022/06/11 01:41:24;;;;;;;7.87;6.47;;;17.70;99.90;;;;;;5053190;28;20211;-42
2022/06/11 01:43:55;;;;;;;7.30;6.53;;;17.70;99.90;;;;;;5052937;28;20196;-42
2022/06/11 01:46:26;;;;;;;7.30;6.57;;;17.70;99.90;;;;;;5040435;28;20208;-41
2022/06/11 01:48:55;;;;;;;6.83;6.10;;;17.80;99.90;;;;;;5038293;28;20207;-42
2022/06/11 01:51:29;;;;;;;5.57;5.00;;;17.80;99.90;;;;;;5053955;28;20634;-41
2022/06/11 01:54:17;;;;;;;8.13;5.37;;;17.80;99.90;;;;;;5042193;28;20211;-43
2022/06/11 01:56:56;;;;;;;5.70;5.30;;;17.80;99.90;;;;;;5052553;28;20683;-41
2022/06/11 01:59:39;;;;;;;6.63;5.03;;;17.80;99.90;;;;;;5047309;28;20202;-42
2022/06/11 02:02:22;;;;;;;5.80;5.30;;;17.70;99.90;;;;;;5043531;28;20199;-40
2022/06/11 02:04:58;;;;;;;6.53;5.13;;;17.60;99.90;;;;;;5043202;28;20207;-42
2022/06/11 02:07:35;;;;;;;5.77;5.27;;;17.60;99.90;;;;;;5047362;28;20225;-41
2022/06/11 02:10:09;;;;;;;6.07;4.70;;;17.60;99.90;;;;;;5043042;28;20211;-45
2022/06/11 02:12:42;;;;;;;5.30;4.87;;;17.60;99.90;;;;;;5050030;28;20195;-41
2022/06/11 02:15:14;;;;;;;6.23;5.63;;;17.60;99.90;;;;;;5044197;28;20199;-42
2022/06/11 02:17:49;;;;;;;7.47;5.53;;;17.50;99.90;;;;;;5052272;28;20203;-41
2022/06/11 02:20:21;;;;;;;6.40;5.90;;;17.50;99.90;;;;;;5037726;28;20292;-41
2022/06/11 02:22:52;;;;;;;6.30;5.70;;;17.50;99.90;;;;;;5051585;28;20203;-41
2022/06/11 02:25:25;;;;;;;6.67;6.03;;;17.50;99.90;;;;;;5043597;28;20200;-42
2022/06/11 02:27:57;;;;;;;7.37;5.67;;;17.50;99.90;;;;;;5061984;28;20198;-44
2022/06/11 02:30:27;;;;;;;6.77;6.17;;;17.50;99.90;;;;;;5042087;28;20234;-43
2022/06/11 02:32:57;;;;;;;9.90;6.57;;;17.60;99.90;;;;;;5056820;28;20252;-42
2022/06/11 02:35:28;;;;;;;7.03;5.97;;;17.60;99.90;;;;;;5051922;28;20199;-41
2022/06/11 02:37:56;;;;;;;8.20;6.13;;;17.60;99.90;;;;;;5056111;28;20277;-41
2022/06/11 02:40:26;;;;;;;6.13;5.60;;;17.60;99.90;;;;;;5043055;28;20207;-41
2022/06/11 02:42:53;;;;;;;7.70;6.00;;;17.60;99.90;;;;;;5053050;28;20612;-41
2022/06/11 02:45:21;;;;;;;6.47;5.03;;;17.60;99.90;;;;;;5060534;28;20202;-43
2022/06/11 02:47:51;;;;;;;6.83;4.90;;;17.60;99.90;;;;;;5053652;28;20206;-43
2022/06/11 02:50:23;;;;;;;5.67;5.13;;;17.70;99.90;;;;;;5046080;28;20215;-44
2022/06/11 02:52:51;;;;;;;8.80;5.77;;;17.70;99.90;;;;;;5054424;28;20209;-41
2022/06/11 02:55:18;;;;;;;7.43;6.30;;;17.70;99.90;;;;;;5048324;28;20195;-46
2022/06/11 02:57:45;;;;;;;6.10;5.33;;;17.70;99.90;;;;;;5060122;28;20190;-43
2022/06/11 03:00:17;;;;;;;6.73;6.07;;;17.70;99.90;;;;;;5047927;28;20734;-46
2022/06/11 03:02:48;;;;;;;5.97;5.40;;;17.70;99.90;;;;;;5047870;28;20895;-41
2022/06/11 03:05:16;;;;;;;5.97;5.20;;;17.70;99.90;;;;;;5038852;28;20215;-44
2022/06/11 03:07:45;;;;;;;6.00;4.87;;;17.80;99.90;;;;;;5057588;28;20729;-41
2022/06/11 03:10:13;;;;;;;5.40;4.90;;;17.70;99.90;;;;;;5050899;28;20314;-43
2022/06/11 03:12:40;;;;;;;4.93;4.50;;;17.70;99.90;;;;;;5063194;28;20266;-42
2022/06/11 03:15:08;;;;;;;6.70;5.43;;;17.70;99.90;;;;;;5051895;28;20622;-43
2022/06/11 03:17:35;;;;;;;4.73;4.33;;;17.70;99.90;;;;;;5048326;28;21621;-44
2022/06/11 03:20:02;;;;;;;5.50;4.73;;;17.70;99.90;;;;;;5042644;28;20222;-43
2022/06/11 03:22:29;;;;;;;5.13;4.70;;;17.70;99.90;;;;;;5051484;28;20195;-43
2022/06/11 03:24:58;;;;;;;5.40;4.17;;;17.70;99.90;;;;;;5049803;28;20653;-43
2022/06/11 03:27:24;;;;;;;5.13;4.73;;;17.70;99.90;;;;;;5051591;28;20206;-41
2022/06/11 03:29:51;;;;;;;4.80;4.40;;;17.70;99.90;;;;;;5054951;28;20222;-41
2022/06/11 03:32:19;;;;;;;5.50;5.00;;;17.70;99.90;;;;;;5046602;28;20644;-41
2022/06/11 03:34:46;;;;;;;5.77;4.97;;;17.70;99.90;;;;;;5040022;28;20214;-42
2022/06/11 03:37:14;;;;;;;5.03;4.50;;;17.70;99.90;;;;;;5046599;28;20203;-42
2022/06/11 03:39:41;;;;;;;5.63;5.10;;;17.70;99.90;;;;;;5051516;28;20238;-42
2022/06/11 03:42:10;;;;;;;5.40;4.90;;;17.60;99.90;;;;;;5052075;28;20660;-42
2022/06/11 03:44:37;;;;;;;5.47;4.83;;;17.60;99.90;;;;;;5053605;28;20214;-40
2022/06/11 03:47:04;;;;;;;8.43;5.57;;;17.60;99.90;;;;;;5046508;28;20195;-41
2022/06/11 03:49:32;;;;;;;6.07;5.57;;;17.60;99.90;;;;;;5047367;28;20377;-44
2022/06/11 03:51:58;;;;;;;5.80;5.23;;;17.60;99.90;;;;;;5044404;28;20215;-41
2022/06/11 03:54:25;;;;;;;6.23;5.67;;;17.60;99.90;;;;;;5049311;28;20208;-40
2022/06/11 03:56:52;;;;;;;6.27;5.67;;;17.70;99.90;;;;;;5052491;28;20206;-41
2022/06/11 03:59:21;;;;;;;7.60;5.70;;;17.70;99.90;;;;;;5047462;28;20204;-45
2022/06/11 04:01:48;;;;;;;6.40;5.73;;;17.70;99.90;;;;;;5050367;28;20655;-41
2022/06/11 04:04:18;;;;;;;6.47;5.50;;;17.70;99.90;;;;;;5045656;28;20203;-42
2022/06/11 04:06:48;;;;;;;6.77;5.60;;;17.70;99.90;;;;;;5041784;28;20740;-41
2022/06/11 04:09:18;;;;;;;8.40;5.63;;;17.80;99.90;;;;;;5051328;28;20202;-42
2022/06/11 04:11:45;;;;;;;6.57;6.03;;;17.80;99.90;;;;;;5055046;28;20225;-44
2022/06/11 04:14:12;;;;;;;5.90;5.40;;;17.80;99.90;;;;;;5047488;28;20203;-42
2022/06/11 04:16:46;;;;;;;5.90;5.40;;;17.80;99.90;;;;;;5047984;28;20281;-41
2022/06/11 04:19:16;;;;;;;5.77;5.23;;;17.70;99.90;;;;;;5058009;28;20206;-45
2022/06/11 04:21:45;;;;;;;6.23;5.30;;;17.70;99.90;;;;;;5045106;28;20190;-43
2022/06/11 04:24:12;;;;;;;5.93;5.43;;;17.80;99.90;;;;;;5049507;28;20214;-40
2022/06/11 04:26:43;;;;;;;5.53;4.70;;;17.80;99.90;;;;;;5056771;28;20220;-41
2022/06/11 04:29:13;;;;;;;6.07;5.47;;;17.80;99.90;;;;;;5049046;28;20206;-41
2022/06/11 04:31:42;;;;;;;5.77;5.10;;;17.80;99.90;;;;;;5048047;28;20215;-42
2022/06/11 04:34:09;;;;;;;5.90;5.30;;;17.80;99.90;;;;;;5046460;28;20672;-42
2022/06/11 04:36:36;;;;;;;6.10;5.33;;;17.90;99.90;;;;;;5055388;28;20199;-41
2022/06/11 04:39:04;;;;;;;6.87;5.83;;;17.90;99.90;;;;;;5044222;28;20215;-43
2022/06/11 04:41:31;;;;;;;9.23;5.33;;;17.90;99.90;;;;;;5054265;28;20191;-41
2022/06/11 04:43:58;;;;;;;7.57;4.90;;;17.90;99.90;;;;;;5053521;28;20207;-42
2022/06/11 04:46:25;;;;;;;6.77;5.33;;;18.00;99.90;;;;;;5040581;28;20198;-42
2022/06/11 04:48:53;;;;;;;5.00;4.60;;;17.90;99.90;;;;;;5054256;28;20295;-45
2022/06/11 04:51:20;;;;;;;9.53;5.43;;;18.00;99.90;;;;;;5052273;28;20222;-42
2022/06/11 04:53:48;;;;;;;8.57;5.53;;;18.00;99.90;;;;;;5041649;28;20207;-41
2022/06/11 04:56:19;;;;;;;6.77;5.20;;;18.00;99.90;;;;;;5058080;28;20198;-41
2022/06/11 04:58:46;;;;;;;9.43;5.20;;;18.00;99.90;;;;;;5061146;28;20667;-41
2022/06/11 05:01:13;;;;;;;9.40;6.57;;;18.10;99.90;;;;;;5055063;28;20218;-42
2022/06/11 05:03:40;;;;;;;7.00;6.30;;;18.10;99.90;;;;;;5043916;28;20207;-42
2022/06/11 05:06:09;;;;;;;9.20;6.80;;;18.10;99.90;;;;;;5050737;28;20202;-41
2022/06/11 05:08:36;;;;;;;7.43;6.03;;;18.20;99.90;;;;;;5051600;28;20203;-42
2022/06/11 05:11:04;;;;;;;6.73;6.07;;;18.20;99.90;;;;;;5045518;28;20284;-41
2022/06/11 05:13:31;;;;;;;6.93;6.03;;;18.20;99.90;;;;;;5052871;28;20220;-41
2022/06/11 05:15:58;;;;;;;7.23;6.53;;;18.30;99.90;;;;;;5063662;28;20241;-41
2022/06/11 05:18:26;;;;;;;9.33;5.93;;;18.30;99.90;;;;;;5055434;28;20965;-42
2022/06/11 05:20:54;;;;;;;9.07;6.60;;;18.30;99.90;;;;;;5060369;28;20217;-40
2022/06/11 05:23:22;;;;;;;7.57;6.10;;;18.40;99.90;;;;;;5043948;28;20225;-41
2022/06/11 05:25:50;;;;;;;7.77;6.23;;;18.40;99.90;;;;;;5044219;28;20285;-40
2022/06/11 05:28:21;;;;;;;8.23;6.17;;;18.50;99.90;;;;;;5055506;28;20194;-45
2022/06/11 05:30:48;;;;;;;7.23;6.43;;;18.60;99.90;;;;;;5048697;28;20268;-43
2022/06/11 05:33:16;;;;;;;7.30;6.60;;;18.70;99.90;;;;;;5055779;28;20191;-41
2022/06/11 05:35:43;;;;;;;7.03;6.00;;;18.70;99.90;;;;;;5053560;28;20248;-42
2022/06/11 05:38:13;;;;;;;7.20;6.50;;;18.80;99.90;;;;;;5051435;28;20200;-42
2022/06/11 05:40:42;;;;;;;8.80;5.80;;;18.80;99.90;;;;;;5040452;28;20226;-41
2022/06/11 05:43:10;;;;;;;9.63;5.70;;;18.90;99.90;;;;;;5054578;28;20249;-42
2022/06/11 05:45:42;;;;;;;6.80;5.87;;;18.90;99.90;;;;;;5055599;28;20197;-41
2022/06/11 05:48:10;;;;;;;7.90;6.03;;;18.90;99.90;;;;;;5055779;28;20674;-42
2022/06/11 05:50:39;;;;;;;7.97;6.17;;;18.90;99.90;;;;;;5054858;28;20510;-44
2022/06/11 05:53:08;;;;;;;7.83;6.20;;;18.90;99.90;;;;;;5043679;28;20199;-41
2022/06/11 05:55:39;;;;;;;7.40;6.10;;;19.00;99.90;;;;;;5044690;28;20268;-48
2022/06/11 05:58:11;;;;;;;7.43;6.50;;;19.00;99.90;;;;;;5046232;28;20693;-41
2022/06/11 06:00:38;;;;;;;7.93;5.80;;;19.10;99.90;;;;;;5046749;28;20219;-43
2022/06/11 06:03:05;;;;;;;8.50;7.63;;;19.10;99.90;;;;;;5052613;28;20190;-42
2022/06/11 06:05:33;;;;;;;7.57;6.80;;;19.10;99.90;;;;;;5038366;28;22852;-45
2022/06/11 06:08:02;;;;;;;8.53;6.87;;;19.20;99.90;;;;;;5049843;28;20569;-45
2022/06/11 06:10:29;;;;;;;9.37;6.80;;;19.20;99.90;;;;;;5042798;28;20218;-41
2022/06/11 06:12:56;;;;;;;9.83;6.67;;;19.30;99.90;;;;;;5045252;28;20228;-45
2022/06/11 06:15:30;;;;;;;9.97;7.30;;;19.30;99.90;;;;;;5036981;28;20201;-42
2022/06/11 06:17:57;;;;;;;11.10;8.30;;;19.30;99.90;;;;;;5054213;28;20191;-42
2022/06/11 06:20:25;;;;;;;9.87;8.40;;;19.40;99.90;;;;;;5040696;28;21832;-41
2022/06/11 06:22:52;;;;;;;8.03;7.33;;;19.50;99.90;;;;;;5053527;28;20194;-42
2022/06/11 06:25:22;;;;;;;12.07;8.20;;;19.60;99.90;;;;;;5043018;28;20213;-41
2022/06/11 06:27:48;;;;;;;12.13;7.57;;;19.70;99.90;;;;;;5030442;28;20868;-41
2022/06/11 06:30:15;;;;;;;9.67;8.30;;;19.70;99.90;;;;;;5050918;28;20578;-41
2022/06/11 06:32:43;;;;;;;11.63;9.27;;;19.80;99.90;;;;;;5041419;28;20222;-41
2022/06/11 06:35:10;;;;;;;9.00;8.10;;;19.80;99.90;;;;;;5043695;28;20253;-42
2022/06/11 06:37:37;;;;;;;10.70;8.30;;;19.80;99.90;;;;;;5046261;28;20214;-45
2022/06/11 06:40:06;;;;;;;9.97;8.47;;;20.00;99.90;;;;;;5053167;28;20288;-50
2022/06/11 06:42:33;;;;;;;12.27;9.07;;;20.00;99.90;;;;;;5038233;28;20227;-43
2022/06/11 06:45:00;;;;;;;13.73;9.00;;;20.00;99.90;;;;;;5050681;28;20278;-42
2022/06/11 06:47:27;;;;;;;8.47;7.57;;;20.00;99.90;;;;;;5051902;28;20206;-42
2022/06/11 06:49:55;;;;;;;9.73;8.13;;;20.00;99.90;;;;;;5042415;28;20268;-45
2022/06/11 06:52:22;;;;;;;10.17;8.10;;;20.00;99.90;;;;;;5049884;28;20215;-48
2022/06/11 06:54:49;;;;;;;12.00;6.93;;;20.00;99.90;;;;;;5038156;28;20213;-45
2022/06/11 06:57:16;;;;;;;12.47;6.93;;;20.00;99.90;;;;;;5052162;28;21828;-43
2022/06/11 06:59:43;;;;;;;10.83;6.57;;;20.00;99.90;;;;;;5041519;28;20219;-43
2022/06/11 07:02:10;;;;;;;10.93;6.13;;;20.10;99.90;;;;;;5050597;28;20203;-43
2022/06/11 07:04:37;;;;;;;7.73;6.17;;;20.00;99.90;;;;;;5051646;28;20194;-45
2022/06/11 07:07:07;;;;;;;7.93;5.60;;;20.00;99.90;;;;;;5042809;28;20209;-43
2022/06/11 07:09:33;;;;;;;8.10;5.03;;;20.10;99.90;;;;;;5050476;28;20230;-44
2022/06/11 07:12:00;;;;;;;9.07;5.33;;;20.10;99.90;;;;;;5041851;28;20226;-41
2022/06/11 07:14:27;;;;;;;9.53;5.10;;;20.10;99.90;;;;;;5043832;28;20240;-47
2022/06/11 07:16:56;;;;;;;5.50;4.07;;;20.10;99.90;;;;;;5050429;28;20219;-45
2022/06/11 07:19:27;;;;;;;5.07;4.47;;;20.10;99.90;;;;;;5049624;28;20199;-48
2022/06/11 07:21:58;;;;;;;5.20;4.70;;;20.10;99.90;;;;;;5041674;28;20957;-46
2022/06/11 07:24:30;;;;;;;5.37;4.53;;;20.10;99.90;;;;;;5044001;28;20712;-45
2022/06/11 07:27:02;;;;;;;7.77;4.30;;;20.00;99.90;;;;;;5044949;28;20207;-45
2022/06/11 07:29:33;;;;;;;7.13;4.60;;;20.00;99.90;;;;;;5040511;28;20230;-45
2022/06/11 07:32:04;;;;;;;5.97;4.87;;;20.10;99.90;;;;;;5051144;28;20222;-45
2022/06/11 07:34:30;;;;;;;10.27;5.30;;;20.00;99.90;;;;;;5043810;28;20214;-46
2022/06/11 07:36:58;;;;;;;7.73;4.90;;;20.00;99.90;;;;;;5042683;28;20245;-45
2022/06/11 07:39:26;;;;;;;9.03;4.57;;;20.00;99.90;;;;;;5047988;28;20718;-44
2022/06/11 07:41:53;;;;;;;7.60;4.40;;;20.00;99.90;;;;;;5051950;28;20221;-46
2022/06/11 07:44:20;;;;;;;5.30;4.47;;;19.90;99.90;;;;;;5046563;28;20690;-46
2022/06/11 07:46:47;;;;;;;9.63;4.80;;;19.90;99.90;;;;;;5039591;28;20349;-45
2022/06/11 07:49:13;;;;;;;8.53;4.60;;;20.00;99.90;;;;;;5049371;28;20586;-47
2022/06/11 07:51:40;;;;;;;7.23;4.60;;;20.00;99.90;;;;;;5044100;28;20214;-44
2022/06/11 07:54:08;;;;;;;8.17;4.80;;;20.10;99.90;;;;;;5055074;28;20213;-47
2022/06/11 07:56:37;;;;;;;7.03;3.90;;;20.20;99.90;;;;;;5046467;28;20206;-51
2022/06/11 07:59:04;;;;;;;7.33;3.40;;;20.20;99.90;;;;;;5050158;28;20292;-48
2022/06/11 08:01:31;;;;;;;7.63;4.50;;;20.30;99.90;;;;;;5036763;28;20682;-47
2022/06/11 08:03:58;;;;;;;6.83;3.90;;;20.50;99.90;;;;;;5047323;28;20191;-46
2022/06/11 08:06:26;;;;;;;4.03;3.07;;;20.60;99.90;;;;;;5042097;28;20349;-46
2022/06/11 08:08:53;;;;;;;8.70;3.90;;;20.60;99.90;;;;;;5045621;28;20230;-45
2022/06/11 08:11:20;;;;;;;6.17;4.13;;;20.70;99.90;;;;;;5047308;28;20215;-48
2022/06/11 08:13:48;;;;;;;6.10;4.43;;;20.70;99.90;;;;;;5039459;28;20211;-50
2022/06/11 08:16:15;;;;;;;6.40;4.10;;;20.70;99.90;;;;;;5047321;28;20286;-46
2022/06/11 08:18:42;;;;;;;5.83;4.40;;;20.60;99.90;;;;;;5043862;28;20205;-43
2022/06/11 08:21:09;;;;;;;6.00;5.40;;;20.60;99.90;;;;;;5045194;28;20588;-43
2022/06/11 08:23:37;;;;;;;6.83;5.07;;;20.60;99.90;;;;;;5048896;28;20203;-44
2022/06/11 08:26:04;;;;;;;6.00;5.07;;;20.70;99.90;;;;;;5040650;28;20214;-47
2022/06/11 08:28:31;;;;;;;7.50;6.80;;;20.60;99.90;;;;;;5046894;28;20203;-46
2022/06/11 08:31:03;;;;;;;6.33;5.73;;;20.50;99.90;;;;;;5043324;28;20226;-46
2022/06/11 08:33:31;;;;;;;7.17;5.63;;;20.50;99.90;;;;;;5044345;28;20311;-44
2022/06/11 08:35:57;;;;;;;7.53;5.27;;;20.70;99.90;;;;;;5048255;28;20198;-46
2022/06/11 08:38:24;;;;;;;7.83;5.20;;;20.80;99.90;;;;;;5042225;28;20230;-45
2022/06/11 08:40:54;;;;;;;6.60;5.30;;;21.00;99.90;;;;;;5042346;28;22685;-43
2022/06/11 08:43:25;;;;;;;7.27;5.90;;;21.20;99.90;;;;;;5044171;28;20289;-43
2022/06/11 08:45:54;;;;;;;6.17;5.10;;;21.30;99.90;;;;;;5044622;28;20191;-44
2022/06/11 08:48:32;;;;;;;5.97;5.17;;;21.20;99.90;;;;;;5042828;28;20218;-48
2022/06/11 08:51:07;;;;;;;6.17;5.03;;;21.40;99.90;;;;;;5046949;28;20214;-46
2022/06/11 08:53:36;;;;;;;8.80;4.93;;;21.50;99.90;;;;;;5047030;28;20230;-49
2022/06/11 08:56:04;;;;;;;6.93;4.68;;;21.60;99.90;;;;;;5047576;28;20207;-44
2022/06/11 08:58:50;;;;;;;5.65;4.70;;;21.60;99.90;;;;;;5050901;28;20210;-46
2022/06/11 09:01:24;;;;;;;6.03;4.40;;;21.60;99.90;;;;;;5042059;28;20655;-45
2022/06/11 09:04:13;;;;;;;4.50;4.10;;;21.60;99.90;;;;;;5035480;28;20297;-46
2022/06/11 09:07:05;;;;;;;4.37;4.07;;;21.70;99.90;;;;;;5048783;28;20207;-44
2022/06/11 09:09:46;;;;;;;6.93;4.20;;;21.80;99.90;;;;;;5039503;28;20230;-44
2022/06/11 09:12:31;;;;;;;5.05;3.88;;;21.80;99.90;;;;;;5049731;28;20218;-46
2022/06/11 09:15:06;;;;;;;5.10;4.00;;;22.10;99.90;;;;;;5050860;28;20827;-48
2022/06/11 09:17:54;;;;;;;4.13;3.60;;;22.30;99.90;;;;;;5047733;28;20572;-45
2022/06/11 09:20:36;;;;;;;4.50;4.15;;;22.20;99.90;;;;;;5039273;28;20715;-45
2022/06/11 09:23:16;;;;;;;4.80;4.30;;;22.10;99.90;;;;;;5048116;28;20199;-46
2022/06/11 09:25:55;;;;;;;7.40;4.55;;;22.10;99.90;;;;;;5044570;28;20202;-43
2022/06/11 09:28:30;;;;;;;5.03;3.90;;;22.10;99.90;;;;;;5047416;28;20264;-43
2022/06/11 09:31:06;;;;;;;4.65;4.00;;;22.00;99.90;;;;;;5049196;28;20210;-44
2022/06/11 09:33:40;;;;;;;4.32;4.00;;;22.00;99.90;;;;;;5045789;28;20218;-46
2022/06/11 09:36:14;;;;;;;4.35;3.35;;;22.10;99.90;;;;;;5046524;28;20214;-43
2022/06/11 09:38:54;;;;;;;2.50;2.30;;;22.10;99.90;;;;;;5047844;28;20220;-44
2022/06/11 09:41:30;;;;;;;2.55;2.10;;;22.00;99.90;;;;;;5046854;28;20655;-43
2022/06/11 09:44:08;;;;;;;2.92;2.30;;;21.80;99.90;;;;;;5050201;28;20194;-44
2022/06/11 09:46:41;;;;;;;4.78;1.90;;;21.80;99.00;;;;;;5044293;28;20214;-46
2022/06/11 09:49:20;;;;;;;3.03;1.75;;;21.80;99.50;;;;;;5049545;28;20230;-44
2022/06/11 09:51:54;;;;;;;2.95;1.73;;;21.90;98.40;;;;;;5038784;28;20214;-45
2022/06/11 09:54:42;;;;;;;3.88;2.20;;;22.00;97.00;;;;;;5047976;28;20214;-45
2022/06/11 09:57:22;;;;;;;6.13;2.05;;;21.90;98.00;;;;;;5048132;28;20274;-48
2022/06/11 09:59:53;;;;;;;1.70;1.60;;;21.80;98.20;;;;;;5042431;28;20218;-43
2022/06/11 10:02:29;;;;;;;4.88;2.10;;;21.70;98.00;;;;;;5047854;28;20195;-49
2022/06/11 10:05:00;;;;;;;2.03;1.83;;;21.70;98.30;;;;;;5037699;28;20206;-43
2022/06/11 10:07:31;;;;;;;4.85;1.80;;;21.60;97.00;;;;;;5061383;28;20714;-46
2022/06/11 10:10:04;;;;;;;3.17;1.60;;;21.50;96.00;;;;;;5056835;28;20221;-43
2022/06/11 10:12:36;;;;;;;1.70;1.60;;;21.50;96.10;;;;;;5049541;28;20215;-44
2022/06/11 10:15:09;;;;;;;2.80;1.88;;;21.50;95.80;;;;;;5047971;28;20257;-44
2022/06/11 10:17:43;;;;;;;5.30;1.80;;;21.50;96.10;;;;;;5042308;28;20196;-45
2022/06/11 10:20:14;;;;;;;6.35;2.10;;;21.60;96.20;;;;;;5044462;28;20215;-43
2022/06/11 10:22:47;;;;;;;2.03;1.45;;;21.70;95.70;;;;;;5042298;28;20209;-45
2022/06/11 10:25:20;;;;;;;2.08;1.42;;;21.70;95.90;;;;;;5052055;28;20226;-43
2022/06/11 10:27:52;;;;;;;2.25;1.33;;;21.70;95.30;;;;;;5045570;28;20194;-45
2022/06/11 10:30:34;;;;;;;2.85;1.80;;;21.80;94.20;;;;;;5049907;28;20231;-46
2022/06/11 10:33:03;;;;;;;3.40;1.90;;;22.00;93.60;;;;;;5058752;28;20974;-48
2022/06/11 10:35:31;;;;;;;3.67;1.77;;;22.00;93.60;;;;;;5041936;28;20241;-45
2022/06/11 10:38:10;;;;;;;8.23;2.17;;;22.20;93.40;;;;;;5046805;28;20890;-44
2022/06/11 10:40:43;;;;;;;3.78;2.50;;;22.20;93.40;;;;;;5057033;28;20230;-49
2022/06/11 10:43:16;;;;;;;2.33;1.60;;;22.30;93.40;;;;;;5048781;28;20191;-44
2022/06/11 10:45:44;;;;;;;4.40;1.77;;;22.30;93.60;;;;;;5050505;28;20801;-44
2022/06/11 10:48:17;;;;;;;3.85;2.03;;;22.30;93.40;;;;;;5053090;28;20214;-46
2022/06/11 10:50:44;;;;;;;3.97;1.85;;;22.20;93.20;;;;;;5051269;28;20227;-44
2022/06/11 10:53:19;;;;;;;6.10;1.80;;;22.20;92.70;;;;;;5053969;28;20214;-44
2022/06/11 10:55:51;;;;;;;3.33;1.70;;;22.20;92.20;;;;;;5052163;28;20197;-44
2022/06/11 10:58:28;;;;;;;4.95;2.22;;;22.20;92.60;;;;;;5046478;28;20195;-44
2022/06/11 11:00:58;;;;;;;3.88;2.00;;;22.20;92.90;;;;;;5045112;28;20931;-43
2022/06/11 11:03:35;;;;;;;3.33;1.77;;;22.00;92.70;;;;;;5053476;28;20307;-43
2022/06/11 11:06:05;;;;;;;4.43;2.05;;;21.90;92.80;;;;;;5051409;28;20206;-44
2022/06/11 11:08:34;;;;;;;7.25;2.08;;;21.90;92.40;;;;;;5044114;28;20593;-45
2022/06/11 11:11:02;;;;;;;3.45;1.70;;;21.80;92.20;;;;;;5043720;28;20277;-45
2022/06/11 11:13:38;;;;;;;6.85;2.53;;;21.80;92.40;;;;;;5057468;28;20217;-42
2022/06/11 11:16:19;;;;;;;9.43;2.22;;;22.00;92.70;;;;;;5036912;28;20946;-43
2022/06/11 11:18:51;;;;;;;5.85;2.47;;;22.10;93.20;;;;;;5048351;28;20207;-43
2022/06/11 11:21:32;;;;;;;4.88;2.55;;;22.10;93.10;;;;;;5045068;28;20335;-42
2022/06/11 11:24:07;;;;;;;8.50;2.83;;;22.30;93.50;;;;;;5044894;28;20194;-45
2022/06/11 11:26:40;;;;;;;5.13;2.38;;;22.30;93.00;;;;;;5059191;28;20666;-43
2022/06/11 11:29:13;;;;;;;8.05;2.25;;;22.30;93.40;;;;;;5045111;28;20198;-43
2022/06/11 11:31:45;;;;;;;6.18;2.17;;;22.40;93.40;;;;;;5056702;28;20213;-43
2022/06/11 11:34:16;;;;;;;7.13;2.67;;;22.50;93.70;;;;;;5044391;28;20217;-43
2022/06/11 11:36:44;;;;;;;4.65;2.72;;;22.50;94.30;;;;;;5058339;28;20206;-43
2022/06/11 11:39:34;;;;;;;5.35;2.78;;;22.30;95.40;;;;;;5043657;28;20210;-43
2022/06/11 11:42:10;;;;;;;8.48;2.42;;;22.20;95.00;;;;;;5032331;28;20212;-45
2022/06/11 11:44:41;;;;;;;5.15;2.50;;;22.10;95.20;;;;;;5046642;28;20207;-44
2022/06/11 11:47:15;;;;;;;5.68;2.38;;;22.10;94.30;;;;;;5053849;28;20202;-44
2022/06/11 11:49:41;;;;;;;5.78;3.13;;;22.30;94.30;;;;;;5043023;28;20882;-43
2022/06/11 11:52:15;;;;;;;7.78;3.05;;;22.30;94.00;;;;;;5052701;28;20227;-44
2022/06/11 11:54:55;;;;;;;4.63;2.33;;;22.30;94.20;;;;;;5041284;28;20202;-45
2022/06/11 11:57:23;;;;;;;8.70;2.45;;;22.50;94.10;;;;;;5046403;28;20704;-43
2022/06/11 11:59:53;;;;;;;5.75;2.35;;;22.50;94.00;;;;;;5050328;28;21084;-46
2022/06/11 12:02:24;;;;;;;7.95;2.33;;;22.40;93.80;;;;;;5041741;28;20231;-44
2022/06/11 12:04:56;;;;;;;7.68;2.28;;;22.30;94.40;;;;;;5047895;28;20202;-43
2022/06/11 12:07:32;;;;;;;9.23;3.17;;;22.20;95.00;;;;;;5040761;28;20214;-46
2022/06/11 12:10:14;;;;;;;6.60;2.53;;;22.10;94.90;;;;;;5043742;28;20726;-44
2022/06/11 12:12:44;;;;;;;7.35;2.95;;;22.00;95.00;;;;;;5036844;28;20202;-44
2022/06/11 12:15:17;;;;;;;7.55;2.38;;;21.90;95.40;;;;;;5049763;28;20281;-44
2022/06/11 12:17:49;;;;;;;8.07;2.55;;;21.90;94.40;;;;;;5040793;28;20209;-46
2022/06/11 12:20:24;;;;;;;5.85;2.67;;;22.10;94.20;;;;;;5041693;28;20583;-46
2022/06/11 12:22:56;;;;;;;8.35;2.90;;;22.30;94.10;;;;;;5047314;28;20202;-49
2022/06/11 12:25:34;;;;;;;7.05;2.97;;;22.40;94.00;;;;;;5051089;28;20267;-45
2022/06/11 12:28:03;;;;;;;6.80;2.15;;;22.50;95.40;;;;;;5047517;28;20218;-44
2022/06/11 12:30:30;;;;;;;6.00;2.40;;;22.80;93.70;;;;;;5054689;28;20233;-46
2022/06/11 12:32:59;;;;;;;6.85;2.28;;;22.90;93.20;;;;;;5042898;28;20321;-44
2022/06/11 12:35:54;;;;;;;6.20;2.50;;;23.00;93.70;;;;;;5049868;28;20283;-45
2022/06/11 12:38:32;;;;;;;6.78;2.80;;;23.00;93.60;;;;;;5051095;28;20207;-44
2022/06/11 12:41:16;;;;;;;7.75;3.15;;;23.00;93.40;;;;;;5047396;28;20210;-44
2022/06/11 12:43:50;;;;;;;7.47;2.40;;;22.70;93.40;;;;;;5049216;28;20277;-43
2022/06/11 12:46:24;;;;;;;10.45;3.25;;;22.40;94.00;;;;;;5049377;28;20603;-44
2022/06/11 12:48:54;;;;;;;11.25;3.22;;;22.50;94.50;;;;;;5039916;28;20676;-47
2022/06/11 12:51:29;;;;;;;9.18;2.67;;;22.90;94.00;;;;;;5044152;28;20219;-44
2022/06/11 12:54:00;;;;;;;5.35;2.78;;;23.30;93.30;;;;;;5044683;28;20222;-45
2022/06/11 12:56:56;;;;;;;8.00;2.67;;;23.70;92.40;;;;;;5041882;28;20206;-45
2022/06/11 12:59:38;;;;;;;11.90;3.63;;;23.90;91.30;;;;;;5041979;28;20728;-44
2022/06/11 13:02:21;;;;;;;6.88;3.30;;;24.00;91.20;;;;;;5053667;28;20195;-45
2022/06/11 13:05:10;;;;;;;8.40;3.08;;;24.00;91.70;;;;;;5047015;28;20199;-44
2022/06/11 13:07:42;;;;;;;12.77;2.78;;;23.90;91.90;;;;;;5054124;28;20194;-48